»·PEaware :: N75CR KLAX-KSAN

N75CR :: KLAX-KSAN

FLIGHT INFORMATION

Flight Status: Arrived
Operator: Privately registered:
United States
More flights under this callsign
Pilot: Chase R. (27276)
Aircraft: SOCATA TBM-900
(TBM9)
More flights by this aircraft type
Origin: KLAX Los Angeles Intl
United States
Destination: KSAN San Diego Intl-Lindbergh
United States
More flights between these airports :: More routes between these airports
Route: +
File this flight plan on PilotEdge
Remarks:
Altitude:
(Current/Filed)
0ft
Speed:
(Current/Filed)
0kts
Departed: 12-Jan-20 04:50 PM
Arrived: 12-Jan-20 05:43 PM
Distance/Time
Traveled:
95nm/0:53
Distance/Time
To Go:
Arrived

Flight Plot

Page will automatically refresh every two minutes.


Map Options




Map Legend


Flown Route
Filed Route
Departure Airport
Arrival Airport
Navaid (VOR, NDB)
Fix

Horizontal Profiles

Position Reports

Time Latitude Longitude Heading Altitude Ground
Speed
12-Jan-20 16:35 33.932655 -118.399154 83 128ft 0kts
12-Jan-20 16:36 33.932655 -118.399154 83 128ft 0kts
12-Jan-20 16:37 33.932655 -118.399154 83 128ft 0kts
12-Jan-20 16:38 33.932655 -118.399154 83 128ft 0kts
12-Jan-20 16:39 33.932655 -118.399154 83 128ft 0kts
12-Jan-20 16:40 33.932655 -118.399154 83 128ft 0kts
12-Jan-20 16:41 33.932655 -118.399154 83 128ft 0kts
12-Jan-20 16:42 33.932655 -118.399154 83 128ft 0kts
12-Jan-20 16:43 33.934161 -118.398190 353 128ft 7kts
12-Jan-20 16:44 33.934983 -118.393898 83 128ft 22kts
12-Jan-20 16:45 33.935581 -118.388132 83 128ft 22kts
12-Jan-20 16:46 33.936251 -118.382902 39 128ft 8kts
12-Jan-20 16:47 33.936384 -118.382831 13 128ft 0kts
12-Jan-20 16:48 33.937049 -118.382927 329 128ft 13kts
12-Jan-20 16:49 33.935553 -118.400316 262 269ft 120kts
12-Jan-20 16:50 33.931786 -118.453983 262 1588ft 170kts
12-Jan-20 16:51 33.899758 -118.484162 165 2393ft 213kts
12-Jan-20 16:52 33.846022 -118.455964 160 2881ft 219kts
12-Jan-20 16:53 33.794535 -118.434089 166 2911ft 166kts
12-Jan-20 16:54 33.765033 -118.392740 120 2884ft 168kts
12-Jan-20 16:55 33.743562 -118.343012 119 2723ft 174kts
12-Jan-20 16:56 33.723009 -118.292988 115 2918ft 159kts
12-Jan-20 16:57 33.707949 -118.244756 118 3368ft 151kts
12-Jan-20 16:58 33.688405 -118.200572 121 3892ft 162kts
12-Jan-20 16:59 33.663078 -118.154516 132 4443ft 177kts
12-Jan-20 17:00 33.628815 -118.109575 140 4983ft 189kts
12-Jan-20 17:01 33.590140 -118.065570 144 5470ft 193kts
12-Jan-20 17:02 33.544332 -118.026083 151 5502ft 210kts
12-Jan-20 17:03 33.491639 -117.990675 154 5501ft 217kts
12-Jan-20 17:04 33.435211 -117.965319 188 5473ft 216kts
12-Jan-20 17:05 33.409368 -118.017497 271 5494ft 180kts
12-Jan-20 17:06 33.415430 -118.073071 287 5498ft 166kts
12-Jan-20 17:07 33.430454 -118.123718 292 5501ft 162kts
12-Jan-20 17:08 33.447465 -118.172385 297 5503ft 160kts
12-Jan-20 17:09 33.472075 -118.215743 310 5504ft 159kts
12-Jan-20 17:10 33.513621 -118.232290 349 5505ft 169kts
12-Jan-20 17:11 33.523238 -118.190468 158 5496ft 186kts
12-Jan-20 17:12 33.482303 -118.158004 89 5506ft 191kts
12-Jan-20 17:13 33.471006 -118.097745 133 5498ft 195kts
12-Jan-20 17:14 33.428693 -118.056177 138 5500ft 194kts
12-Jan-20 17:15 33.384725 -118.010741 138 5509ft 221kts
12-Jan-20 17:16 33.337826 -117.960026 137 5502ft 227kts
12-Jan-20 17:17 33.291388 -117.908227 135 5498ft 227kts
12-Jan-20 17:18 33.246021 -117.856555 134 5493ft 225kts
12-Jan-20 17:19 33.201380 -117.804909 133 5491ft 223kts
12-Jan-20 17:20 33.156630 -117.752522 133 5492ft 223kts
12-Jan-20 17:21 33.115065 -117.704039 133 5416ft 157kts
12-Jan-20 17:22 33.086980 -117.671524 132 5576ft 184kts
12-Jan-20 17:23 33.054180 -117.619514 111 5472ft 206kts
12-Jan-20 17:24 33.030873 -117.557133 111 5463ft 209kts
12-Jan-20 17:25 33.008563 -117.495457 111 5461ft 211kts
12-Jan-20 17:26 32.987026 -117.429977 104 5460ft 213kts
12-Jan-20 17:27 32.984217 -117.361424 77 5457ft 213kts
12-Jan-20 17:28 33.025306 -117.321026 17 5455ft 204kts
12-Jan-20 17:29 33.040022 -117.270746 152 5436ft 200kts
12-Jan-20 17:30 32.988836 -117.274412 181 5461ft 195kts
12-Jan-20 17:31 32.940749 -117.265988 172 5442ft 161kts
12-Jan-20 17:32 32.899110 -117.255231 171 5462ft 158kts
12-Jan-20 17:33 32.856214 -117.243601 172 5444ft 144kts
12-Jan-20 17:34 32.821575 -117.234601 171 5291ft 161kts
12-Jan-20 17:35 32.796252 -117.199124 106 3633ft 156kts
12-Jan-20 17:36 32.783772 -117.151847 109 1998ft 148kts
12-Jan-20 17:37 32.766607 -117.118377 164 1430ft 111kts
12-Jan-20 17:38 32.741323 -117.118777 198 1348ft 83kts
12-Jan-20 17:39 32.724282 -117.134341 256 1250ft 76kts
12-Jan-20 17:40 32.725741 -117.157863 285 604ft 67kts
12-Jan-20 17:41 32.730893 -117.178885 288 112ft 64kts
12-Jan-20 17:42 32.734046 -117.188117 18 20ft 0kts
12-Jan-20 17:43 32.734841 -117.190401 261 20ft 2kts

Navigation Log

Ident Type
Flight plan parsing failed, navigation log unavailable